Bishkek/Manas International Airport

Airport
ICAO code: 
UCFM
IATA Code: 
FRU
Summary
ICAO Region: 
APAC
Territory: 
Location: 
Bishkek, Chuy, Kyrgyzstan,
Serving: 
Bishkek
Elevation: 
2058 ft
Coordinates: 
Aerial View: 
43° 3' 40.7" N, 74° 28' 39.2" E
Metar
Observation
UCFM 171600Z 03002MPS 1100 0800W R26/P1500D BCFG BKN001 BKN050CB 00/00 Q1020 R26/2///95 TEMPO 0500 FZFG VV001
Station
Manas International Airport
Date/Time
2022-01-17 16:00:00
Wind direction
30°
Lowest cloud amount
broken clouds
Temperature
0°C
Dew point
0°C
Humidity
100%
QNH
1020 hPa
Weather condition
n/a

Description

International airport serving the city of Bishkek.

Climatology

Cold Semi-arid climate (Köppen climate classification BSk). - Hot, sometimes extremely hot summers and cold, sometimes very cold winters. Some snowfall during the winter. Areas featuring cold semi-arid climates are sometimes subject to major temperature swings during a 24 hour period.

Airport map: 
Aerial View: 

Accidents and Serious Incidents at or in the vicinity of UCFM

SKYbrary Partners:

Safety knowledge contributed by: